Dades meteomassalio
Diari Summary for Diciembre 16, 2017 Units:  Metric    English   Both
« Previous Day
Next Day »
Diari Semanal Mensual Anual Personalitzat
  Maxima: Minima: Mijana:
Temperatura: -17.8 °C -15.3 °C -14 °C
Rosada: -17.8 °C -17.8 °C -17.1 °C
Humitat: Humidity % 52 % 68 %
Velocitat del vent: 0 km/h 15 km/h 49.6 km/h
Racha vent: 0 km/h - -
Vent:- - NW
Pressio: 0 hPa 34395 hPa -
Pluja: 0 mm    
Historical Graphs
 
 
Tabular Data for Diciembre 16, 2017
Time Temperature Dew Point Pressure Wind Wind Speed Wind Gust Humidity Rainfall Rate (Hourly) solar Conditions
-17.8 °C -17.8 °C 0 hPa Calm     Humidity % 0 mm SolarRadiationWatts/m^2 W/m2 Conditions
00:01 -14.4 °C -16.9 °C 34405.1 hPa WNW 65.5 km/h 65.5 km/h 73 % 0 mm 0.0 W/m2 RA
00:06 -14.4 °C -16.9 °C 34405.1 hPa NNW 41.7 km/h 41.7 km/h 73 % 0 mm 0.0 W/m2 CLR
00:09 -14.4 °C -16.9 °C 34405.1 hPa NW 41.7 km/h 41.7 km/h 73 % 0 mm 0.0 W/m2 CLR
00:11 -14.4 °C -16.9 °C 34405.1 hPa North 32.8 km/h 32.8 km/h 73 % 0 mm 0.0 W/m2 CLR
00:15 -14.7 °C -17.2 °C 34405.1 hPa NW 49.2 km/h 49.2 km/h 73 % 0 mm 0.0 W/m2 CLR
00:20 -14.7 °C -17.2 °C 34405.1 hPa NNW 32.8 km/h 32.8 km/h 73 % 0 mm 0.0 W/m2 CLR
00:21 -14.7 °C -17.2 °C 34405.1 hPa NW 47.6 km/h 47.6 km/h 73 % 0 mm 0.0 W/m2 CLR
00:22 -14.7 °C -17.2 °C 34405.1 hPa NW 35.7 km/h 35.7 km/h 73 % 0 mm 0.0 W/m2 CLR
00:27 -14.7 °C -17.2 °C 34405.1 hPa NNW 50.7 km/h 50.7 km/h 73 % 0 mm 0.0 W/m2 CLR
00:33 -14.7 °C -17.2 °C 34405.1 hPa NNW 38.8 km/h 42.5 km/h 73 % 0 mm 0.0 W/m2 CLR
00:34 -14.7 °C -17.2 °C 34405.1 hPa NW 50.7 km/h 50.7 km/h 73 % 0 mm 0.0 W/m2 CLR
00:37 -14.7 °C -17.2 °C 34405.1 hPa NNW 59.5 km/h 59.5 km/h 73 % 0 mm 0.0 W/m2 CLR
00:39 -14.7 °C -17.2 °C 34405.1 hPa NNW 47.6 km/h 47.6 km/h 73 % 0 mm 0.0 W/m2 CLR
00:44 -14.7 °C -17.2 °C 34405.1 hPa NW 44.7 km/h 44.7 km/h 73 % 0 mm 0.0 W/m2 CLR
00:46 -14.7 °C -17.2 °C 34405.1 hPa NNW 50.7 km/h 50.7 km/h 73 % 0 mm 0.0 W/m2 CLR
00:51 -14.7 °C -17.2 °C 34405.1 hPa North 50.7 km/h 50.7 km/h 73 % 0 mm 0.0 W/m2 CLR
00:52 -14.7 °C -17.2 °C 34405.1 hPa NNW 56.6 km/h 56.6 km/h 73 % 0 mm 0.0 W/m2 CLR
00:57 -14.7 °C -17.2 °C 34405.1 hPa NNW 59.5 km/h 59.5 km/h 73 % 0 mm 0.0 W/m2 CLR
00:59 -14.7 °C -17.2 °C 34405.1 hPa NNW 53.6 km/h 53.6 km/h 73 % 0 mm 0.0 W/m2 CLR
01:04 -14.7 °C -17.2 °C 34405.1 hPa North 53.6 km/h 53.6 km/h 73 % 0 mm 0.0 W/m2 CLR
01:05 -14.7 °C -17.2 °C 34405.1 hPa North 53.6 km/h 53.6 km/h 73 % 0 mm 0.0 W/m2 CLR
01:10 -14.7 °C -17.2 °C 34405.1 hPa North 54.4 km/h 54.4 km/h 73 % 0 mm 0.0 W/m2 CLR
01:15 -14.4 °C -16.9 °C 34405.1 hPa NNW 41.7 km/h 41.7 km/h 73 % 0 mm 0.0 W/m2 CLR
01:16 -14.4 °C -16.9 °C 34395 hPa NW 51.8 km/h 51.8 km/h 73 % 0 mm 0.0 W/m2 CLR
01:20 -14.7 °C -17.2 °C 34395 hPa NNW 50.7 km/h 50.7 km/h 73 % 0 mm 0.0 W/m2 CLR
01:21 -14.7 °C -17.2 °C 34405.1 hPa NW 65.5 km/h 65.5 km/h 73 % 0 mm 0.0 W/m2 CLR
01:26 -14.4 °C -17 °C 34405.1 hPa NNW 59.5 km/h 59.5 km/h 72 % 0 mm 0.0 W/m2 CLR
01:27 -14.7 °C -17.3 °C 34405.1 hPa NW 56.6 km/h 56.6 km/h 72 % 0 mm 0.0 W/m2 CLR
01:32 -14.7 °C -17.2 °C 34395 hPa NNW 56.6 km/h 56.6 km/h 73 % 0 mm 0.0 W/m2 CLR
01:33 -14.7 °C -17.2 °C 34395 hPa NNW 65.5 km/h 65.5 km/h 73 % 0 mm 0.0 W/m2 CLR
01:34 -14.7 °C -17.3 °C 34405.1 hPa NNW 50.7 km/h 50.7 km/h 72 % 0 mm 0.0 W/m2 CLR
01:39 -14.7 °C -17.3 °C 34405.1 hPa NNW 68.6 km/h 68.6 km/h 72 % 0 mm 0.0 W/m2 CLR
01:40 -14.7 °C -17.3 °C 34405.1 hPa NW 56.6 km/h 56.6 km/h 72 % 0 mm 0.0 W/m2 CLR
01:42 -14.7 °C -17.3 °C 34405.1 hPa NNW 50.7 km/h 50.7 km/h 72 % 0 mm 0.0 W/m2 CLR
01:47 -14.7 °C -17.3 °C 34405.1 hPa NW 59.5 km/h 59.5 km/h 72 % 0 mm 0.0 W/m2 CLR
01:48 -14.7 °C -17.3 °C 34405.1 hPa NW 59.5 km/h 59.5 km/h 72 % 0 mm 0.0 W/m2 CLR
01:53 -14.7 °C -17.3 °C 34405.1 hPa NNW 26.9 km/h 26.9 km/h 72 % 0 mm 0.0 W/m2 CLR
01:58 -14.7 °C -17.2 °C 34405.1 hPa NNW 56.6 km/h 56.6 km/h 73 % 0 mm 0.0 W/m2 CLR
01:59 -14.7 °C -17.2 °C 34405.1 hPa NW 47.6 km/h 47.6 km/h 73 % 0 mm 0.0 W/m2 CLR
02:01 -14.7 °C -17.3 °C 34405.1 hPa NNW 71.5 km/h 71.5 km/h 72 % 0 mm 0.0 W/m2 CLR
02:05 -14.7 °C -17.3 °C 34405.1 hPa WNW 47.6 km/h 47.6 km/h 72 % 0 mm 0.0 W/m2 CLR
02:10 -14.7 °C -17.3 °C 34418.7 hPa NNW 50.7 km/h 50.7 km/h 72 % 0 mm 0.0 W/m2 CLR
02:11 -14.7 °C -17.3 °C 34418.7 hPa NNW 50.7 km/h 50.7 km/h 72 % 0 mm 0.0 W/m2 CLR
02:16 -14.7 °C -17.3 °C 34418.7 hPa NNW 44.7 km/h 44.7 km/h 72 % 0 mm 0.0 W/m2 CLR
02:18 -14.7 °C -17.3 °C 34418.7 hPa NNW 38.8 km/h 38.8 km/h 72 % 0 mm 0.0 W/m2 CLR
02:19 -14.7 °C -17.3 °C 34418.7 hPa NW 53.6 km/h 53.6 km/h 72 % 0 mm 0.0 W/m2 CLR
02:23 -14.7 °C -17.3 °C 34418.7 hPa NW 32.8 km/h 32.8 km/h 72 % 0 mm 0.0 W/m2 CLR
02:28 -14.7 °C -17.3 °C 34418.7 hPa NW 38.8 km/h 38.8 km/h 72 % 0 mm 0.0 W/m2 CLR
02:29 -14.7 °C -17.4 °C 34418.7 hPa NW 38.8 km/h 38.8 km/h 71 % 0 mm 0.0 W/m2 CLR
02:33 -14.7 °C -17.3 °C 34405.1 hPa NW 50.7 km/h 50.7 km/h 72 % 0 mm 0.0 W/m2 CLR
02:34 -14.7 °C -17.3 °C 34405.1 hPa NW 38.8 km/h 38.8 km/h 72 % 0 mm 0.0 W/m2 CLR
02:39 -14.7 °C -17.3 °C 34405.1 hPa NW 35.7 km/h 35.7 km/h 72 % 0 mm 0.0 W/m2 CLR
02:41 -14.7 °C -17.3 °C 34418.7 hPa NW 41.7 km/h 41.7 km/h 72 % 0 mm 0.0 W/m2 CLR
02:46 -14.7 °C -17.3 °C 34418.7 hPa NW 35.7 km/h 35.7 km/h 72 % 0 mm 0.0 W/m2 CLR
02:51 -14.7 °C -17.3 °C 34428.8 hPa NW 38.8 km/h 38.8 km/h 72 % 0 mm 0.0 W/m2 CLR
02:52 -14.7 °C -17.3 °C 34428.8 hPa NNW 50.7 km/h 50.7 km/h 72 % 0 mm 0.0 W/m2 CLR
02:57 -14.7 °C -17.3 °C 34428.8 hPa North 46.7 km/h 46.7 km/h 72 % 0 mm 0.0 W/m2 CLR
03:02 -15 °C -17.6 °C 34428.8 hPa NW 41.7 km/h 41.7 km/h 72 % 0 mm 0.0 W/m2 CLR
03:07 -14.7 °C -17.3 °C 34428.8 hPa NW 53.6 km/h 53.6 km/h 72 % 0 mm 0.0 W/m2 CLR
03:12 -14.7 °C -17.3 °C 34428.8 hPa NNW 50.7 km/h 50.7 km/h 72 % 0 mm 0.0 W/m2 CLR
03:14 -14.7 °C -17.3 °C 34428.8 hPa NW 47.6 km/h 47.6 km/h 72 % 0 mm 0.0 W/m2 CLR
03:17 -14.7 °C -17.3 °C 34442.4 hPa NW 44.7 km/h 44.7 km/h 72 % 0 mm 0.0 W/m2 CLR
03:21 -14.7 °C -17.3 °C 34442.4 hPa NW 57 km/h 57 km/h 72 % 0 mm 0.0 W/m2 CLR
03:23 -14.7 °C -17.3 °C 34442.4 hPa NW 36.2 km/h 36.2 km/h 72 % 0 mm 0.0 W/m2 CLR
03:24 -14.7 °C -17.3 °C 34442.4 hPa NNW 44.7 km/h 44.7 km/h 72 % 0 mm 0.0 W/m2 CLR
03:29 -14.7 °C -17.3 °C 34428.8 hPa WNW 46.7 km/h 46.7 km/h 72 % 0 mm 0.0 W/m2 CLR
03:31 -14.7 °C -17.3 °C 34428.8 hPa West 41.7 km/h 41.7 km/h 72 % 0 mm 0.0 W/m2 CLR
03:36 -14.7 °C -17.3 °C 34442.4 hPa NW 41.4 km/h 41.4 km/h 72 % 0 mm 0.0 W/m2 CLR
03:37 -14.7 °C -17.3 °C 34442.4 hPa NW 41.4 km/h 41.4 km/h 72 % 0 mm 0.0 W/m2 CLR
03:38 -14.7 °C -17.2 °C 34442.4 hPa NW 53.6 km/h 53.6 km/h 73 % 0 mm 0.0 W/m2 CLR
03:42 -14.7 °C -17.2 °C 34442.4 hPa NW 41.7 km/h 41.7 km/h 73 % 0 mm 0.0 W/m2 CLR
03:47 -14.7 °C -17.2 °C 34442.4 hPa NW 38.8 km/h 38.8 km/h 73 % 0 mm 0.0 W/m2 CLR
03:48 -14.7 °C -17.2 °C 34442.4 hPa NNW 47.6 km/h 47.6 km/h 73 % 0 mm 0.0 W/m2 CLR
03:49 -14.7 °C -17.2 °C 34442.4 hPa NNW 44.7 km/h 44.7 km/h 73 % 0 mm 0.0 W/m2 CLR
03:53 -14.7 °C -17.2 °C 34452.6 hPa WNW 38.8 km/h 38.8 km/h 73 % 0 mm 0.0 W/m2 CLR
03:54 -14.7 °C -17.2 °C 34452.6 hPa NW 44.7 km/h 44.7 km/h 73 % 0 mm 0.0 W/m2 CLR
03:59 -14.7 °C -17.2 °C 34452.6 hPa NNW 50.7 km/h 50.7 km/h 73 % 0 mm 0.0 W/m2 CLR
04:00 -14.7 °C -17.2 °C 34452.6 hPa NW 50.7 km/h 50.7 km/h 73 % 0 mm 0.0 W/m2 CLR
04:06 -14.7 °C -17.2 °C 34452.6 hPa NW 53.6 km/h 53.6 km/h 73 % 0 mm 0.0 W/m2 CLR
04:12 -14.7 °C -17.2 °C 34452.6 hPa NW 41.4 km/h 41.4 km/h 73 % 0 mm 0.0 W/m2 CLR
04:17 -14.7 °C -17.2 °C 34452.6 hPa NW 44.7 km/h 44.7 km/h 73 % 0 mm 0.0 W/m2 CLR
04:22 -14.7 °C -17.2 °C 34452.6 hPa NW 47.6 km/h 47.6 km/h 73 % 0 mm 0.0 W/m2 CLR
04:26 -14.7 °C -17.3 °C 34462.7 hPa NW 33.6 km/h 33.6 km/h 72 % 0 mm 0.0 W/m2 CLR
04:27 -14.7 °C -17.3 °C 34452.6 hPa NW 32.8 km/h 32.8 km/h 72 % 0 mm 0.0 W/m2 CLR
04:32 -15 °C -17.6 °C 34462.7 hPa NW 36.2 km/h 36.2 km/h 72 % 0 mm 0.0 W/m2 CLR
04:37 -15 °C -17.6 °C 34462.7 hPa NW 44.7 km/h 44.7 km/h 72 % 0 mm 0.0 W/m2 CLR
04:38 -15 °C -17.6 °C 34462.7 hPa NW 44.7 km/h 44.7 km/h 72 % 0 mm 0.0 W/m2 CLR
04:39 -15 °C -17.6 °C 34462.7 hPa NNW 38.8 km/h 38.8 km/h 72 % 0 mm 0.0 W/m2 CLR
04:43 -15 °C -17.6 °C 34462.7 hPa NW 32.8 km/h 32.8 km/h 72 % 0 mm 0.0 W/m2 CLR
04:46 -15 °C -17.4 °C 34462.7 hPa NW 38.8 km/h 38.8 km/h 73 % 0 mm 0.0 W/m2 CLR
04:49 -15 °C -17.4 °C 34462.7 hPa NW 32.8 km/h 32.8 km/h 73 % 0 mm 0.0 W/m2 CLR
04:52 -15 °C -17.6 °C 34462.7 hPa NW 38.8 km/h 38.8 km/h 72 % 0 mm 0.0 W/m2 CLR
04:55 -15 °C -17.6 °C 34462.7 hPa NW 25.9 km/h 25.9 km/h 72 % 0 mm 0.0 W/m2 CLR
05:00 -15 °C -17.4 °C 34476.3 hPa NW 26.9 km/h 26.9 km/h 73 % 0 mm 0.0 W/m2 CLR
05:02 -15 °C -17.4 °C 34476.3 hPa WNW 29.8 km/h 29.8 km/h 73 % 0 mm 0.0 W/m2 CLR
05:06 -15.3 °C -17.8 °C 34476.3 hPa NW 33.6 km/h 33.6 km/h 73 % 0 mm 0.0 W/m2 CLR
05:10 -15.3 °C -17.7 °C 34476.3 hPa NW 29.8 km/h 29.8 km/h 74 % 0 mm 0.0 W/m2 CLR
05:11 -15.3 °C -17.7 °C 34476.3 hPa NW 29.8 km/h 29.8 km/h 74 % 0 mm 0.0 W/m2 CLR
05:16 -15 °C -17.4 °C 34476.3 hPa NNW 20.9 km/h 20.9 km/h 74 % 0 mm 0.0 W/m2 CLR
05:17 -15 °C -17.4 °C 34486.4 hPa NW 28.5 km/h 28.5 km/h 74 % 0 mm 0.0 W/m2 CLR
05:22 -15.3 °C -17.7 °C 34476.3 hPa WNW 32.8 km/h 32.8 km/h 74 % 0 mm 0.0 W/m2 CLR
05:23 -15.3 °C -17.7 °C 34476.3 hPa NW 32.8 km/h 32.8 km/h 74 % 0 mm 0.0 W/m2 CLR
05:28 -15 °C -17.4 °C 34476.3 hPa NW 59.5 km/h 59.5 km/h 74 % 0 mm 0.0 W/m2 CLR
05:33 -15 °C -17.4 °C 34476.3 hPa NW 38.8 km/h 38.8 km/h 74 % 0 mm 0.0 W/m2 CLR
05:35 -15 °C -17.4 °C 34476.3 hPa NW 47.6 km/h 47.6 km/h 74 % 0 mm 0.0 W/m2 CLR
05:38 -15 °C -17.4 °C 34476.3 hPa NNW 44.7 km/h 44.7 km/h 74 % 0 mm 0.0 W/m2 CLR
05:43 -15 °C -17.4 °C 34476.3 hPa NW 53.6 km/h 53.6 km/h 74 % 0 mm 0.0 W/m2 CLR
05:44 -15 °C -17.4 °C 34476.3 hPa NW 53.6 km/h 53.6 km/h 73 % 0 mm 0.0 W/m2 CLR
05:46 -15 °C -17.4 °C 34476.3 hPa NNW 53.6 km/h 53.6 km/h 74 % 0 mm 0.0 W/m2 CLR
05:49 -15 °C -17.4 °C 34476.3 hPa NW 51.8 km/h 51.8 km/h 74 % 0 mm 0.0 W/m2 CLR
05:52 -15 °C -17.4 °C 34476.3 hPa NW 56.6 km/h 56.6 km/h 74 % 0 mm 0.0 W/m2 CLR
05:54 -14.7 °C -17.1 °C 34476.3 hPa NW 65.5 km/h 65.5 km/h 74 % 0 mm 0.0 W/m2 CLR
05:58 -14.7 °C -17.1 °C 34476.3 hPa NW 68.6 km/h 68.6 km/h 74 % 0 mm 0.0 W/m2 CLR
06:01 -14.7 °C -17.1 °C 34476.3 hPa NW 62.1 km/h 62.1 km/h 74 % 0 mm 0.0 W/m2 CLR
06:06 -14.7 °C -17.2 °C 34476.3 hPa NW 62.6 km/h 62.6 km/h 73 % 0 mm 0.0 W/m2 CLR
06:09 -14.7 °C -17.2 °C 34486.4 hPa NW 68.6 km/h 68.6 km/h 73 % 0 mm 0.0 W/m2 CLR
06:14 -14.7 °C -17.2 °C 34486.4 hPa NW 47.6 km/h 47.6 km/h 73 % 0 mm 0.0 W/m2 CLR
06:18 -14.7 °C -17.2 °C 34486.4 hPa NNW 56.6 km/h 56.6 km/h 73 % 0 mm 0.0 W/m2 CLR
06:19 -14.7 °C -17.2 °C 34486.4 hPa NW 53.6 km/h 53.6 km/h 73 % 0 mm 0.0 W/m2 CLR
06:20 -14.7 °C -17.2 °C 34486.4 hPa NW 49.2 km/h 49.2 km/h 73 % 0 mm 0.0 W/m2 CLR
06:25 -14.7 °C -17.2 °C 34486.4 hPa NW 47.6 km/h 47.6 km/h 73 % 0 mm 0.0 W/m2 CLR
06:30 -14.7 °C -17.2 °C 34496.6 hPa NW 47.6 km/h 47.6 km/h 73 % 0 mm 0.0 W/m2 CLR
06:35 -15 °C -17.4 °C 34496.6 hPa NNW 41.7 km/h 41.7 km/h 73 % 0 mm 0.0 W/m2 CLR
06:40 -15 °C -17.4 °C 34496.6 hPa NW 41.7 km/h 41.7 km/h 73 % 0 mm 0.0 W/m2 CLR
06:41 -15 °C -17.4 °C 34496.6 hPa NNW 49.2 km/h 49.2 km/h 73 % 0 mm 0.0 W/m2 CLR
06:46 -15 °C -17.4 °C 34496.6 hPa NNW 50.7 km/h 50.7 km/h 73 % 0 mm 0.0 W/m2 CLR
06:51 -15 °C -17.4 °C 34496.6 hPa NNW 41.7 km/h 41.7 km/h 73 % 0 mm 0.0 W/m2 CLR
06:56 -15 °C -17.4 °C 34496.6 hPa NNW 31.1 km/h 31.1 km/h 73 % 0 mm 0.0 W/m2 CLR
06:58 -15 °C -17.4 °C 34496.6 hPa NW 38.8 km/h 38.8 km/h 73 % 0 mm 0.0 W/m2 CLR
07:03 -15 °C -17.6 °C 34496.6 hPa NW 38.8 km/h 38.8 km/h 72 % 0 mm 0.0 W/m2 CLR
07:08 -15 °C -17.6 °C 34510.1 hPa NW 32.8 km/h 32.8 km/h 72 % 0 mm 0.0 W/m2 CLR
07:09 -15 °C -17.6 °C 34510.1 hPa NW 29.8 km/h 29.8 km/h 72 % 0 mm 0.0 W/m2 CLR
07:10 -15 °C -17.6 °C 34510.1 hPa WNW 29.8 km/h 29.8 km/h 72 % 0 mm 0.0 W/m2 CLR
07:15 -15 °C -17.6 °C 34510.1 hPa WNW 17.9 km/h 17.9 km/h 72 % 0 mm 0.0 W/m2 CLR
07:16 -15 °C -17.6 °C 34520.3 hPa WNW 23.3 km/h 23.3 km/h 72 % 0 mm 0.0 W/m2 CLR
07:18 -15 °C -17.6 °C 34520.3 hPa NW 29.8 km/h 29.8 km/h 72 % 0 mm 0.0 W/m2 CLR
07:22 -15 °C -17.6 °C 34520.3 hPa NW 23.8 km/h 23.8 km/h 72 % 0 mm 0.0 W/m2 CLR
07:23 -15 °C -17.6 °C 34520.3 hPa WNW 23.8 km/h 23.8 km/h 72 % 0 mm 0.0 W/m2 CLR
07:28 -15 °C -17.7 °C 34520.3 hPa West 23.8 km/h 23.8 km/h 71 % 0 mm 0.0 W/m2 CLR
07:29 -15 °C -17.7 °C 34520.3 hPa NW 23.3 km/h 23.3 km/h 71 % 0 mm 0.0 W/m2 CLR
07:34 -15 °C -17.7 °C 34533.8 hPa NW 20.8 km/h 20.8 km/h 71 % 0 mm 0.0 W/m2 CLR
07:39 -15 °C -17.7 °C 34533.8 hPa NW 26.9 km/h 26.9 km/h 71 % 0 mm 0.0 W/m2 CLR
07:40 -15 °C -17.7 °C 34533.8 hPa WNW 26.9 km/h 26.9 km/h 71 % 0 mm 0.0 W/m2 CLR
07:42 -15 °C -17.7 °C 34533.8 hPa NW 23.8 km/h 23.8 km/h 71 % 0 mm 0.0 W/m2 CLR
07:45 -15 °C -17.7 °C 34533.8 hPa NW 44.7 km/h 44.7 km/h 71 % 0 mm 0.0 W/m2 CLR
07:50 -15 °C -17.7 °C 34533.8 hPa NW 32.8 km/h 32.8 km/h 71 % 0 mm 0.0 W/m2 CLR
07:55 -15 °C -17.7 °C 34533.8 hPa WNW 32.8 km/h 32.8 km/h 71 % 0 mm 0.0 W/m2 CLR
08:00 -14.7 °C -17.4 °C 34544 hPa NW 29.8 km/h 29.8 km/h 71 % 0 mm 0.0 W/m2 CLR
08:01 -14.7 °C -17.4 °C 34544 hPa NW 33.6 km/h 33.6 km/h 71 % 0 mm 0.0 W/m2 CLR
08:04 -14.7 °C -17.5 °C 34533.8 hPa WNW 38.8 km/h 38.8 km/h 70 % 0 mm 0.0 W/m2 CLR
08:06 -14.7 °C -17.5 °C 34544 hPa NW 26.9 km/h 26.9 km/h 70 % 0 mm 0.0 W/m2 CLR
08:11 -14.7 °C -17.5 °C 34544 hPa WNW 44.7 km/h 44.7 km/h 70 % 0 mm 0.0 W/m2 OVC
08:12 -14.7 °C -17.5 °C 34544 hPa WNW 32.8 km/h 32.8 km/h 70 % 0 mm 0.0 W/m2 OVC
08:17 -14.7 °C -17.5 °C 34544 hPa WNW 38.8 km/h 38.8 km/h 70 % 0 mm 0.0 W/m2 OVC
08:22 -14.7 °C -17.5 °C 34544 hPa NW 35.7 km/h 35.7 km/h 70 % 0 mm 5.0 W/m2 OVC
08:27 -14.7 °C -17.5 °C 34554.1 hPa WNW 35.7 km/h 35.7 km/h 70 % 0 mm 5.0 W/m2 OVC
08:28 -14.7 °C -17.5 °C 34554.1 hPa NW 36.2 km/h 36.2 km/h 70 % 0 mm 5.0 W/m2 OVC
08:30 -14.7 °C -17.4 °C 34554.1 hPa WNW 32.8 km/h 32.8 km/h 71 % 0 mm 7.0 W/m2 BKN
08:35 -14.7 °C -17.4 °C 34554.1 hPa NW 44.7 km/h 44.7 km/h 71 % 0 mm 7.0 W/m2 BKN
08:39 -14.7 °C -17.4 °C 34554.1 hPa NW 38.8 km/h 38.8 km/h 71 % 0 mm 9.0 W/m2 BKN
08:41 -14.7 °C -17.3 °C 34567.7 hPa NW 36.2 km/h 36.2 km/h 72 % 0 mm 11.0 W/m2 BKN
08:46 -14.7 °C -17.3 °C 34567.7 hPa NNW 41.7 km/h 41.7 km/h 72 % 0 mm 14.0 W/m2 BKN
08:47 -14.7 °C -17.3 °C 34567.7 hPa NNW 41.7 km/h 41.7 km/h 72 % 0 mm 14.0 W/m2 BKN
08:52 -14.7 °C -17.3 °C 34567.7 hPa WNW 35.7 km/h 35.7 km/h 72 % 0 mm 19.0 W/m2 BKN
08:57 -14.7 °C -17.3 °C 34567.7 hPa NW 47.6 km/h 47.6 km/h 72 % 0 mm 23.0 W/m2 BKN
08:58 -14.7 °C -17.3 °C 34567.7 hPa NW 46.7 km/h 46.7 km/h 72 % 0 mm 23.0 W/m2 BKN
09:03 -14.4 °C -17.1 °C 34567.7 hPa NNW 50.7 km/h 50.7 km/h 71 % 0 mm 26.0 W/m2 BKN
09:08 -14.4 °C -17 °C 34567.7 hPa NNW 53.6 km/h 53.6 km/h 72 % 0 mm 33.0 W/m2 BKN
09:10 -14.4 °C -17.1 °C 34577.8 hPa NW 47.6 km/h 47.6 km/h 71 % 0 mm 39.0 W/m2 BKN
09:15 -14.4 °C -17.1 °C 34577.8 hPa NW 50.7 km/h 50.7 km/h 71 % 0 mm 46.0 W/m2 SCT
09:20 -14.4 °C -17.1 °C 34577.8 hPa NNW 38.8 km/h 38.8 km/h 71 % 0 mm 69.0 W/m2 SCT
09:21 -14.4 °C -17.1 °C 34577.8 hPa NNW 38.8 km/h 38.8 km/h 71 % 0 mm 69.0 W/m2 SCT
09:25 -14.4 °C -17.1 °C 34577.8 hPa NW 50.7 km/h 50.7 km/h 71 % 0 mm 47.0 W/m2 SCT
09:27 -14.4 °C -17.1 °C 34577.8 hPa NW 32.8 km/h 32.8 km/h 71 % 0 mm 44.0 W/m2 SCT
09:31 -14.4 °C -17.1 °C 34591.4 hPa NNW 35.7 km/h 35.7 km/h 71 % 0 mm 91.0 W/m2 SCT
09:34 -14.4 °C -17.1 °C 34591.4 hPa WNW 32.8 km/h 32.8 km/h 71 % 0 mm 56.0 W/m2 SCT
09:37 -14.4 °C -17.1 °C 34591.4 hPa WNW 38.8 km/h 38.8 km/h 71 % 0 mm 46.0 W/m2 SCT
09:39 -14.4 °C -17.2 °C 34591.4 hPa NW 41.7 km/h 41.7 km/h 70 % 0 mm 51.0 W/m2 SCT
09:44 -14.4 °C -17.2 °C 34591.4 hPa NW 29.8 km/h 29.8 km/h 70 % 0 mm 153.0 W/m2 FEW
09:45 -14.4 °C -17.2 °C 34601.5 hPa WNW 32.8 km/h 32.8 km/h 70 % 0 mm 165.0 W/m2 FEW
09:50 -14.1 °C -16.9 °C 34601.5 hPa NW 33.6 km/h 33.6 km/h 70 % 0 mm 192.0 W/m2 CLR
09:51 -14.1 °C -16.9 °C 34601.5 hPa NW 38.8 km/h 38.8 km/h 70 % 0 mm 192.0 W/m2 CLR
09:56 -14.1 °C -17 °C 34601.5 hPa NNW 41.7 km/h 41.7 km/h 69 % 0 mm 163.0 W/m2 CLR
09:57 -14.1 °C -16.9 °C 34601.5 hPa NNW 44.1 km/h 44.1 km/h 70 % 0 mm 163.0 W/m2 CLR
10:02 -14.1 °C -17 °C 34601.5 hPa NW 38.8 km/h 38.8 km/h 69 % 0 mm 134.0 W/m2 CLR
10:07 -14.1 °C -17 °C 34611.7 hPa NW 35.7 km/h 35.7 km/h 69 % 0 mm 181.0 W/m2 CLR
10:09 -14.1 °C -17 °C 34611.7 hPa NW 35.7 km/h 35.7 km/h 69 % 0 mm 163.0 W/m2 CLR
10:13 -13.8 °C -16.8 °C 34611.7 hPa NW 26.9 km/h 26.9 km/h 68 % 0 mm 230.0 W/m2 CLR
10:15 -13.8 °C -16.7 °C 34611.7 hPa NNW 29.8 km/h 29.8 km/h 69 % 0 mm 237.0 W/m2 CLR
10:20 -13.8 °C -16.9 °C 34611.7 hPa WNW 35.7 km/h 35.7 km/h 67 % 0 mm 248.0 W/m2 CLR
10:21 -13.8 °C -16.8 °C 34611.7 hPa NW 35.7 km/h 35.7 km/h 68 % 0 mm 250.0 W/m2 CLR
10:26 -13.8 °C -16.9 °C 34625.2 hPa NW 29.8 km/h 29.8 km/h 67 % 0 mm 281.0 W/m2 CLR
10:28 -13.8 °C -16.9 °C 34611.7 hPa NW 33.6 km/h 33.6 km/h 67 % 0 mm 257.0 W/m2 CLR
10:33 -13.4 °C -16.6 °C 34611.7 hPa NW 47.6 km/h 47.6 km/h 67 % 0 mm 345.0 W/m2 CLR
10:36 -13.4 °C -16.6 °C 34611.7 hPa WNW 44.1 km/h 44.1 km/h 67 % 0 mm 397.0 W/m2 CLR
10:41 -13.2 °C -16.3 °C 34625.2 hPa NNW 46.7 km/h 46.7 km/h 67 % 0 mm 401.0 W/m2 CLR
10:42 -13.2 °C -16.3 °C 34625.2 hPa NW 54.4 km/h 54.4 km/h 67 % 0 mm 404.0 W/m2 CLR
10:47 -13.2 °C -16.3 °C 34625.2 hPa North 59.5 km/h 59.5 km/h 67 % 0 mm 390.0 W/m2 CLR
10:49 -13.2 °C -16.3 °C 34625.2 hPa NNW 53.6 km/h 53.6 km/h 67 % 0 mm 141.0 W/m2 CLR
10:53 -13.2 °C -16.2 °C 34625.2 hPa NW 47.6 km/h 47.6 km/h 68 % 0 mm 262.0 W/m2 CLR
10:58 -13.2 °C -16.3 °C 34625.2 hPa NW 53.6 km/h 53.6 km/h 67 % 0 mm 199.0 W/m2 CLR
11:00 -13.2 °C -16.3 °C 34625.2 hPa NW 56.6 km/h 56.6 km/h 67 % 0 mm 246.0 W/m2 CLR
11:04 -13.2 °C -16.3 °C 34625.2 hPa NW 68.6 km/h 68.6 km/h 67 % 0 mm 183.0 W/m2 CLR
11:05 -13.2 °C -16.3 °C 34625.2 hPa NW 62.6 km/h 62.6 km/h 67 % 0 mm 200.0 W/m2 CLR
11:10 -13.2 °C -16.3 °C 34625.2 hPa NNW 56.6 km/h 56.6 km/h 67 % 0 mm 218.0 W/m2 CLR
11:15 -13.2 °C -16.3 °C 34625.2 hPa NNW 44.1 km/h 44.1 km/h 67 % 0 mm 257.0 W/m2 CLR
11:20 -12.8 °C -16.2 °C 34625.2 hPa NW 50.7 km/h 50.7 km/h 66 % 0 mm 439.0 W/m2 CLR
11:21 -12.8 °C -16.2 °C 34625.2 hPa North 47.6 km/h 47.6 km/h 66 % 0 mm 439.0 W/m2 CLR
11:22 -12.8 °C -16.1 °C 34625.2 hPa North 53.6 km/h 53.6 km/h 67 % 0 mm 439.0 W/m2 CLR
11:27 -12.8 °C -16.2 °C 34625.2 hPa NNW 56.6 km/h 56.6 km/h 66 % 0 mm 482.0 W/m2 CLR
11:32 -12.8 °C -16.3 °C 34625.2 hPa NNW 62.6 km/h 62.6 km/h 65 % 0 mm 455.0 W/m2 CLR
11:37 -12.8 °C -16.3 °C 34625.2 hPa NNW 47.6 km/h 47.6 km/h 65 % 0 mm 373.0 W/m2 CLR
11:38 -12.8 °C -16.3 °C 34625.2 hPa NNW 50.7 km/h 50.7 km/h 65 % 0 mm 360.0 W/m2 CLR
11:39 -12.8 °C -16.3 °C 34625.2 hPa NW 54.4 km/h 54.4 km/h 65 % 0 mm 327.0 W/m2 CLR
11:43 -12.8 °C -16.3 °C 34635.4 hPa NNW 50.7 km/h 50.7 km/h 65 % 0 mm 434.0 W/m2 CLR
11:46 -12.6 °C -16.2 °C 34625.2 hPa NW 59.5 km/h 59.5 km/h 64 % 0 mm 422.0 W/m2 CLR
11:51 -12.6 °C -16.2 °C 34625.2 hPa North 65.5 km/h 65.5 km/h 64 % 0 mm 471.0 W/m2 CLR
11:52 -12.6 °C -16.2 °C 34635.4 hPa North 65.5 km/h 65.5 km/h 64 % 0 mm 471.0 W/m2 CLR
11:56 -12.6 °C -16.2 °C 34635.4 hPa NNW 49.2 km/h 49.2 km/h 64 % 0 mm 211.0 W/m2 CLR
12:01 -12.6 °C -16.2 °C 34635.4 hPa North 62.6 km/h 62.6 km/h 64 % 0 mm 107.0 W/m2 CLR
12:03 -12.8 °C -16.3 °C 34625.2 hPa North 47.6 km/h 47.6 km/h 65 % 0 mm 134.0 W/m2 CLR
12:07 -12.8 °C -16.3 °C 34635.4 hPa North 65.5 km/h 65.5 km/h 65 % 0 mm 141.0 W/m2 CLR
12:10 -12.8 °C -16.3 °C 34625.2 hPa North 68.6 km/h 68.6 km/h 65 % 0 mm 141.0 W/m2 CLR
12:13 -12.8 °C -16.3 °C 34625.2 hPa North 69.8 km/h 69.8 km/h 65 % 0 mm 141.0 W/m2 CLR
12:17 -12.8 °C -16.3 °C 34625.2 hPa North 80.5 km/h 80.5 km/h 65 % 0 mm 438.0 W/m2 CLR
12:20 -12.8 °C -16.3 °C 34625.2 hPa North 62.6 km/h 62.6 km/h 65 % 0 mm 432.0 W/m2 CLR
12:24 -12.6 °C -16.2 °C 34625.2 hPa North 44.7 km/h 44.7 km/h 64 % 0 mm 438.0 W/m2 CLR
12:26 -12.6 °C -16.2 °C 34625.2 hPa NNW 59.5 km/h 59.5 km/h 64 % 0 mm 364.0 W/m2 CLR
12:31 -12.6 °C -16.3 °C 34625.2 hPa North 44.7 km/h 44.7 km/h 63 % 0 mm 431.0 W/m2 CLR
12:36 -12.6 °C -16.4 °C 34625.2 hPa North 47.6 km/h 47.6 km/h 62 % 0 mm 441.0 W/m2 CLR
12:37 -12.6 °C -16.5 °C 34625.2 hPa North 50.7 km/h 50.7 km/h 61 % 0 mm 432.0 W/m2 CLR
12:42 -12.6 °C -16.4 °C 34625.2 hPa NW 41.7 km/h 41.7 km/h 62 % 0 mm 438.0 W/m2 CLR
12:44 -12.6 °C -16.4 °C 34625.2 hPa NNW 36.2 km/h 36.2 km/h 62 % 0 mm 446.0 W/m2 CLR
12:49 -12.2 °C -16.3 °C 34625.2 hPa NNW 68.6 km/h 68.6 km/h 60 % 0 mm 404.0 W/m2 CLR
12:50 -12.2 °C -16.3 °C 34625.2 hPa North 68.6 km/h 68.6 km/h 60 % 0 mm 450.0 W/m2 CLR
12:55 -12.2 °C -16.2 °C 34625.2 hPa NNW 50.7 km/h 50.7 km/h 61 % 0 mm 443.0 W/m2 CLR
12:56 -12.6 °C -16.5 °C 34625.2 hPa NNW 57 km/h 57 km/h 61 % 0 mm 438.0 W/m2 CLR
13:00 -12.2 °C -16.3 °C 34625.2 hPa North 64.7 km/h 64.7 km/h 60 % 0 mm 438.0 W/m2 CLR
13:05 -12.2 °C -16.2 °C 34625.2 hPa NW 44.1 km/h 44.1 km/h 61 % 0 mm 438.0 W/m2 CLR
13:06 -12.2 °C -16.2 °C 34625.2 hPa NNW 64.7 km/h 64.7 km/h 61 % 0 mm 439.0 W/m2 CLR
13:08 -11.9 °C -16.1 °C 34625.2 hPa NNW 68.6 km/h 68.6 km/h 60 % 0 mm 434.0 W/m2 CLR
13:13 -12.2 °C -16.1 °C 34625.2 hPa NNW 71.5 km/h 71.5 km/h 62 % 0 mm 439.0 W/m2 CLR
13:14 -12.2 °C -16.2 °C 34625.2 hPa NNW 68.6 km/h 68.6 km/h 61 % 0 mm 434.0 W/m2 CLR
13:19 -12.2 °C -16.3 °C 34625.2 hPa North 74.5 km/h 74.5 km/h 60 % 0 mm 445.0 W/m2 CLR
13:20 -12.2 °C -16.3 °C 34625.2 hPa North 74.5 km/h 74.5 km/h 60 % 0 mm 445.0 W/m2 CLR
13:21 -12.2 °C -16.2 °C 34625.2 hPa North 68.6 km/h 68.6 km/h 61 % 0 mm 439.0 W/m2 CLR
13:26 -12.2 °C -16.3 °C 34625.2 hPa NNW 68.6 km/h 68.6 km/h 60 % 0 mm 429.0 W/m2 CLR
13:28 -11.9 °C -16.1 °C 34625.2 hPa North 74.5 km/h 74.5 km/h 60 % 0 mm 427.0 W/m2 CLR
13:31 -11.9 °C -16.2 °C 34625.2 hPa NNW 68.6 km/h 68.6 km/h 59 % 0 mm 425.0 W/m2 CLR
13:36 -11.9 °C -16.1 °C 34625.2 hPa North 71.5 km/h 71.5 km/h 60 % 0 mm 418.0 W/m2 CLR
13:38 -11.9 °C -16.1 °C 34625.2 hPa North 68.6 km/h 68.6 km/h 60 % 0 mm 420.0 W/m2 CLR
13:39 -11.9 °C -16.2 °C 34625.2 hPa North 68.6 km/h 68.6 km/h 59 % 0 mm 420.0 W/m2 CLR
13:43 -11.9 °C -16.2 °C 34611.7 hPa NNW 74.5 km/h 74.5 km/h 59 % 0 mm 418.0 W/m2 CLR
13:48 -11.9 °C -16.2 °C 34611.7 hPa NNW 59.5 km/h 59.5 km/h 59 % 0 mm 415.0 W/m2 CLR
13:52 -11.9 °C -16.3 °C 34611.7 hPa North 65.5 km/h 65.5 km/h 58 % 0 mm 410.0 W/m2 CLR
13:55 -11.9 °C -16.3 °C 34611.7 hPa North 69.8 km/h 69.8 km/h 58 % 0 mm 406.0 W/m2 CLR
13:59 -11.9 °C -16.4 °C 34611.7 hPa North 68.6 km/h 68.6 km/h 57 % 0 mm 401.0 W/m2 CLR
14:02 -11.9 °C -16.4 °C 34611.7 hPa NNE 59.5 km/h 59.5 km/h 57 % 0 mm 397.0 W/m2 CLR
14:07 -11.9 °C -16.4 °C 34611.7 hPa North 65.5 km/h 65.5 km/h 57 % 0 mm 394.0 W/m2 CLR
14:08 -11.9 °C -16.6 °C 34611.7 hPa NNW 59.5 km/h 59.5 km/h 56 % 0 mm 392.0 W/m2 CLR
14:13 -11.6 °C -16.3 °C 34611.7 hPa NNW 65.5 km/h 65.5 km/h 56 % 0 mm 390.0 W/m2 CLR
14:18 -11.9 °C -16.4 °C 34611.7 hPa NW 54.4 km/h 54.4 km/h 57 % 0 mm 381.0 W/m2 CLR
14:19 -11.9 °C -16.4 °C 34611.7 hPa North 62.6 km/h 62.6 km/h 57 % 0 mm 381.0 W/m2 CLR
14:24 -11.9 °C -16.6 °C 34611.7 hPa North 68.6 km/h 68.6 km/h 56 % 0 mm 374.0 W/m2 CLR
14:26 -11.9 °C -16.6 °C 34611.7 hPa North 68.6 km/h 68.6 km/h 56 % 0 mm 371.0 W/m2 CLR
14:31 -11.9 °C -16.6 °C 34611.7 hPa North 68.6 km/h 68.6 km/h 56 % 0 mm 376.0 W/m2 CLR
14:35 -11.9 °C -16.6 °C 34611.7 hPa NNW 62.1 km/h 62.1 km/h 56 % 0 mm 362.0 W/m2 CLR
14:38 -11.6 °C -16.6 °C 34611.7 hPa NNW 65.5 km/h 65.5 km/h 54 % 0 mm 357.0 W/m2 CLR
14:41 -11.6 °C -16.4 °C 34611.7 hPa NNE 80.5 km/h 80.5 km/h 55 % 0 mm 350.0 W/m2 CLR
14:45 -11.6 °C -16.4 °C 34611.7 hPa North 65.5 km/h 65.5 km/h 55 % 0 mm 345.0 W/m2 CLR
14:49 -11.6 °C -16.4 °C 34611.7 hPa North 68.6 km/h 68.6 km/h 55 % 0 mm 338.0 W/m2 CLR
14:51 -11.6 °C -16.4 °C 34611.7 hPa North 80.5 km/h 80.5 km/h 55 % 0 mm 336.0 W/m2 CLR
14:56 -11.9 °C -16.7 °C 34611.7 hPa NNW 86.4 km/h 86.4 km/h 55 % 0 mm 325.0 W/m2 CLR
15:01 -11.6 °C -16.4 °C 34611.7 hPa North 53.6 km/h 53.6 km/h 55 % 0 mm 316.0 W/m2 CLR
15:06 -11.6 °C -16.4 °C 34611.7 hPa NNW 80.5 km/h 80.5 km/h 55 % 0 mm 306.0 W/m2 CLR
15:09 -11.6 °C -16.6 °C 34611.7 hPa North 65.5 km/h 65.5 km/h 54 % 0 mm 302.0 W/m2 CLR
15:12 -11.6 °C -16.7 °C 34611.7 hPa North 59.5 km/h 59.5 km/h 53 % 0 mm 299.0 W/m2 CLR
15:17 -11.6 °C -16.7 °C 34625.2 hPa NNW 68.6 km/h 68.6 km/h 53 % 0 mm 287.0 W/m2 CLR
15:18 -11.9 °C -17 °C 34625.2 hPa North 74.5 km/h 74.5 km/h 53 % 0 mm 285.0 W/m2 CLR
15:22 -11.9 °C -17 °C 34625.2 hPa NNW 68.6 km/h 68.6 km/h 53 % 0 mm 274.0 W/m2 CLR
15:25 -11.9 °C -17 °C 34625.2 hPa North 68.6 km/h 68.6 km/h 53 % 0 mm 267.0 W/m2 CLR
15:30 -11.9 °C -17.2 °C 34625.2 hPa North 77.4 km/h 77.4 km/h 52 % 0 mm 258.0 W/m2 CLR
15:35 -11.9 °C -16.9 °C 34625.2 hPa North 68.6 km/h 68.6 km/h 54 % 0 mm 243.0 W/m2 CLR
15:36 -11.9 °C -17 °C 34625.2 hPa NNW 89.3 km/h 89.3 km/h 53 % 0 mm 243.0 W/m2 CLR
15:41 -11.9 °C -16.9 °C 34625.2 hPa NNW 59.5 km/h 59.5 km/h 54 % 0 mm 227.0 W/m2 CLR
15:42 -11.9 °C -16.9 °C 34625.2 hPa North 59.5 km/h 59.5 km/h 54 % 0 mm 225.0 W/m2 CLR
15:48 -11.9 °C -16.9 °C 34625.2 hPa NNW 47.6 km/h 47.6 km/h 54 % 0 mm 209.0 W/m2 CLR
15:53 -12.2 °C -17.3 °C 34635.4 hPa North 89.3 km/h 89.3 km/h 53 % 0 mm 193.0 W/m2 CLR
15:54 -12.2 °C -17.3 °C 34635.4 hPa North 74.5 km/h 74.5 km/h 53 % 0 mm 193.0 W/m2 CLR
15:58 -12.2 °C -17.3 °C 34635.4 hPa North 74.5 km/h 74.5 km/h 53 % 0 mm 183.0 W/m2 CLR
15:59 -12.2 °C -17.3 °C 34635.4 hPa NNW 74.5 km/h 74.5 km/h 53 % 0 mm 178.0 W/m2 CLR
16:04 -12.6 °C -17.4 °C 34645.6 hPa NNW 50.7 km/h 50.7 km/h 54 % 0 mm 163.0 W/m2 CLR
16:05 -12.6 °C -17.4 °C 34645.6 hPa North 50.7 km/h 50.7 km/h 54 % 0 mm 163.0 W/m2 CLR
16:10 -12.6 °C -17.3 °C 34645.6 hPa North 71.5 km/h 71.5 km/h 55 % 0 mm 148.0 W/m2 CLR
16:11 -12.6 °C -17.3 °C 34645.6 hPa North 77.4 km/h 77.4 km/h 55 % 0 mm 142.0 W/m2 CLR
16:12 -12.6 °C -17.3 °C 34645.6 hPa North 72.6 km/h 72.6 km/h 55 % 0 mm 142.0 W/m2 CLR
16:17 -12.6 °C -17.2 °C 34645.6 hPa North 62.6 km/h 62.6 km/h 56 % 0 mm 128.0 W/m2 CLR
16:18 -12.6 °C -17.2 °C 34645.6 hPa NNW 62.6 km/h 62.6 km/h 56 % 0 mm 127.0 W/m2 CLR
16:23 -12.6 °C -17.2 °C 34645.6 hPa North 68.6 km/h 68.6 km/h 56 % 0 mm 109.0 W/m2 CLR
16:28 -12.6 °C -17.4 °C 34645.6 hPa North 77.4 km/h 77.4 km/h 54 % 0 mm 97.0 W/m2 CLR
16:33 -12.6 °C -17.4 °C 34659.1 hPa North 71.5 km/h 71.5 km/h 54 % 0 mm 86.0 W/m2 CLR
16:35 -12.6 °C -17.4 °C 34645.6 hPa North 77.4 km/h 77.4 km/h 54 % 0 mm 81.0 W/m2 CLR
16:40 -12.8 °C -17.7 °C 34645.6 hPa NNW 62.6 km/h 62.6 km/h 54 % 0 mm 62.0 W/m2 SCT
16:41 -12.8 °C -17.7 °C 34645.6 hPa North 59.5 km/h 59.5 km/h 54 % 0 mm 62.0 W/m2 SCT
16:45 -12.8 °C -17.6 °C 34659.1 hPa North 65.5 km/h 65.5 km/h 55 % 0 mm 51.0 W/m2 SCT
16:50 -12.8 °C -17.6 °C 34659.1 hPa North 68.6 km/h 68.6 km/h 55 % 0 mm 40.0 W/m2 BKN
16:56 -12.8 °C -17.4 °C 34659.1 hPa North 68.6 km/h 68.6 km/h 56 % 0 mm 32.0 W/m2 BKN
17:01 -12.8 °C -17.3 °C 34659.1 hPa North 77.4 km/h 77.4 km/h 57 % 0 mm 25.0 W/m2 BKN
17:02 -12.8 °C -17.3 °C 34659.1 hPa North 74.5 km/h 74.5 km/h 57 % 0 mm 21.0 W/m2 BKN
17:07 -12.8 °C -17.2 °C 34659.1 hPa NNW 59.5 km/h 59.5 km/h 58 % 0 mm 16.0 W/m2 BKN
17:08 -12.8 °C -17.2 °C 34659.1 hPa NNW 59.5 km/h 59.5 km/h 58 % 0 mm 16.0 W/m2 BKN
17:11 -12.8 °C -17.1 °C 34669.3 hPa NNW 64.7 km/h 64.7 km/h 59 % 0 mm 12.0 W/m2 BKN
17:13 -13.2 °C -17.3 °C 34669.3 hPa NNW 65.5 km/h 65.5 km/h 59 % 0 mm 12.0 W/m2 BKN
17:18 -13.2 °C -17.2 °C 34659.1 hPa NNW 59.5 km/h 59.5 km/h 60 % 0 mm 11.0 W/m2 BKN
17:23 -13.2 °C -17.1 °C 34669.3 hPa NNW 65.5 km/h 65.5 km/h 61 % 0 mm 9.0 W/m2 BKN
17:25 -13.2 °C -17.1 °C 34669.3 hPa NNW 53.6 km/h 53.6 km/h 61 % 0 mm 7.0 W/m2 BKN
17:28 -13.2 °C -17.1 °C 34669.3 hPa NNW 50.7 km/h 50.7 km/h 61 % 0 mm 7.0 W/m2 BKN
17:30 -13.2 °C -17 °C 34669.3 hPa NNW 71.5 km/h 71.5 km/h 62 % 0 mm 5.0 W/m2 OVC
17:35 -13.4 °C -17.1 °C 34669.3 hPa North 83.4 km/h 83.4 km/h 63 % 0 mm 0.0 W/m2 OVC
17:37 -13.4 °C -17.1 °C 34669.3 hPa NNW 59.5 km/h 59.5 km/h 63 % 0 mm 0.0 W/m2 OVC
17:42 -13.4 °C -17 °C 34669.3 hPa NNW 68.6 km/h 68.6 km/h 64 % 0 mm 0.0 W/m2 CLR
17:43 -13.4 °C -17 °C 34682.8 hPa NNW 65.5 km/h 65.5 km/h 64 % 0 mm 0.0 W/m2 CLR
17:48 -13.4 °C -17 °C 34682.8 hPa North 57 km/h 57 km/h 64 % 0 mm 0.0 W/m2 CLR
17:49 -13.4 °C -17 °C 34682.8 hPa North 56.6 km/h 56.6 km/h 64 % 0 mm 0.0 W/m2 CLR
17:54 -13.4 °C -16.9 °C 34682.8 hPa NNW 68.6 km/h 68.6 km/h 65 % 0 mm 0.0 W/m2 CLR
17:55 -13.4 °C -16.9 °C 34682.8 hPa NNW 71.5 km/h 71.5 km/h 65 % 0 mm 0.0 W/m2 CLR
17:58 -13.4 °C -16.9 °C 34682.8 hPa North 68.6 km/h 68.6 km/h 65 % 0 mm 0.0 W/m2 CLR
18:01 -13.4 °C -16.8 °C 34682.8 hPa NNW 62.6 km/h 62.6 km/h 66 % 0 mm 0.0 W/m2 CLR
18:05 -13.4 °C -16.8 °C 34682.8 hPa NNW 74.5 km/h 74.5 km/h 66 % 0 mm 0.0 W/m2 CLR
18:06 -13.4 °C -16.8 °C 34682.8 hPa NNW 57 km/h 57 km/h 66 % 0 mm 0.0 W/m2 CLR
18:11 -13.4 °C -16.8 °C 34693 hPa NNW 53.6 km/h 53.6 km/h 66 % 0 mm 0.0 W/m2 CLR
18:13 -13.4 °C -16.6 °C 34693 hPa North 62.6 km/h 62.6 km/h 67 % 0 mm 0.0 W/m2 CLR
18:18 -13.4 °C -16.6 °C 34693 hPa North 71.5 km/h 71.5 km/h 67 % 0 mm 0.0 W/m2 CLR
18:19 -13.4 °C -16.6 °C 34693 hPa North 62.6 km/h 62.6 km/h 67 % 0 mm 0.0 W/m2 CLR
18:24 -13.8 °C -16.8 °C 34693 hPa North 62.6 km/h 62.6 km/h 68 % 0 mm 0.0 W/m2 CLR
18:26 -13.8 °C -16.8 °C 34693 hPa NNW 44.7 km/h 44.7 km/h 68 % 0 mm 0.0 W/m2 CLR
18:31 -13.8 °C -16.8 °C 34693 hPa NNW 50.7 km/h 50.7 km/h 68 % 0 mm 0.0 W/m2 CLR
18:33 -13.8 °C -16.8 °C 34693 hPa NNW 50.7 km/h 50.7 km/h 68 % 0 mm 0.0 W/m2 CLR
18:34 -13.8 °C -16.8 °C 34693 hPa NW 62.6 km/h 62.6 km/h 68 % 0 mm 0.0 W/m2 CLR
18:39 -13.8 °C -16.8 °C 34703.1 hPa NNW 44.1 km/h 44.1 km/h 68 % 0 mm 0.0 W/m2 CLR
18:44 -13.8 °C -16.7 °C 34703.1 hPa North 41.7 km/h 41.7 km/h 69 % 0 mm 0.0 W/m2 CLR
18:49 -13.8 °C -16.7 °C 34716.7 hPa NW 50.7 km/h 50.7 km/h 69 % 0 mm 0.0 W/m2 CLR
18:50 -13.8 °C -16.7 °C 34703.1 hPa NNW 53.6 km/h 53.6 km/h 69 % 0 mm 0.0 W/m2 CLR
18:55 -14.1 °C -17 °C 34716.7 hPa NW 50.7 km/h 50.7 km/h 69 % 0 mm 0.0 W/m2 CLR
18:57 -14.1 °C -17 °C 34716.7 hPa NNW 47.6 km/h 47.6 km/h 69 % 0 mm 0.0 W/m2 CLR
19:01 -14.1 °C -17 °C 34716.7 hPa North 49.2 km/h 49.2 km/h 69 % 0 mm 0.0 W/m2 CLR
19:06 -14.1 °C -17 °C 34716.7 hPa North 50.7 km/h 50.7 km/h 69 % 0 mm 0.0 W/m2 CLR
19:08 -14.1 °C -17 °C 34716.7 hPa NNW 47.6 km/h 47.6 km/h 69 % 0 mm 0.0 W/m2 CLR
19:12 -14.1 °C -17 °C 34716.7 hPa NNW 59.5 km/h 59.5 km/h 69 % 0 mm 0.0 W/m2 CLR
19:13 -14.1 °C -16.9 °C 34716.7 hPa NNW 59.5 km/h 59.5 km/h 70 % 0 mm 0.0 W/m2 CLR
19:18 -14.1 °C -17 °C 34726.8 hPa NW 41.7 km/h 41.7 km/h 69 % 0 mm 0.0 W/m2 CLR
19:22 -14.1 °C -16.9 °C 34726.8 hPa NW 38.8 km/h 38.8 km/h 70 % 0 mm 0.0 W/m2 CLR
19:24 -14.1 °C -16.9 °C 34726.8 hPa NW 41.7 km/h 41.7 km/h 70 % 0 mm 0.0 W/m2 CLR
19:29 -14.1 °C -16.9 °C 34726.8 hPa NW 41.4 km/h 41.4 km/h 70 % 0 mm 0.0 W/m2 CLR
19:34 -14.1 °C -16.8 °C 34726.8 hPa NNW 41.7 km/h 41.7 km/h 71 % 0 mm 0.0 W/m2 CLR
19:35 -14.1 °C -16.8 °C 34726.8 hPa NNW 41.7 km/h 41.7 km/h 71 % 0 mm 0.0 W/m2 CLR
19:40 -14.1 °C -16.8 °C 34740.4 hPa NNW 50.7 km/h 50.7 km/h 71 % 0 mm 0.0 W/m2 CLR
19:41 -14.1 °C -16.8 °C 34740.4 hPa NNW 56.6 km/h 56.6 km/h 71 % 0 mm 0.0 W/m2 CLR
19:46 -14.1 °C -16.8 °C 34740.4 hPa NNW 41.7 km/h 41.7 km/h 71 % 0 mm 0.0 W/m2 CLR
19:51 -14.4 °C -17.1 °C 34740.4 hPa NW 46.7 km/h 46.7 km/h 71 % 0 mm 0.0 W/m2 CLR
19:55 -14.4 °C -17.1 °C 34740.4 hPa NW 41.7 km/h 41.7 km/h 71 % 0 mm 0.0 W/m2 CLR
19:57 -14.4 °C -17.1 °C 34740.4 hPa NW 35.7 km/h 35.7 km/h 71 % 0 mm 0.0 W/m2 CLR
20:01 -14.4 °C -17.1 °C 34740.4 hPa NW 36.2 km/h 36.2 km/h 71 % 0 mm 0.0 W/m2 CLR
20:03 -14.4 °C -17.1 °C 34740.4 hPa NW 44.1 km/h 44.1 km/h 71 % 0 mm 0.0 W/m2 CLR
20:08 -14.4 °C -17 °C 34740.4 hPa NW 59.5 km/h 59.5 km/h 72 % 0 mm 0.0 W/m2 CLR
20:09 -14.4 °C -17 °C 34740.4 hPa NNW 46.7 km/h 46.7 km/h 72 % 0 mm 0.0 W/m2 CLR
20:14 -14.4 °C -16.9 °C 34740.4 hPa North 59.5 km/h 59.5 km/h 73 % 0 mm 0.0 W/m2 CLR
20:15 -14.4 °C -16.9 °C 34740.4 hPa NNW 51.8 km/h 51.8 km/h 73 % 0 mm 0.0 W/m2 CLR
20:20 -14.4 °C -16.9 °C 34750.5 hPa NW 59.5 km/h 59.5 km/h 73 % 0 mm 0.0 W/m2 CLR
20:22 -14.4 °C -16.9 °C 34750.5 hPa NW 65.5 km/h 65.5 km/h 73 % 0 mm 0.0 W/m2 CLR
20:27 -14.4 °C -16.9 °C 34750.5 hPa WNW 41.7 km/h 41.7 km/h 73 % 0 mm 0.0 W/m2 CLR
20:32 -14.4 °C -16.9 °C 34750.5 hPa NNW 41.7 km/h 41.7 km/h 73 % 0 mm 0.0 W/m2 CLR
20:37 -14.7 °C -17.1 °C 34760.7 hPa NW 56.6 km/h 56.6 km/h 74 % 0 mm 0.0 W/m2 CLR
20:38 -14.7 °C -17.1 °C 34750.5 hPa NW 47.6 km/h 47.6 km/h 74 % 0 mm 0.0 W/m2 CLR
20:43 -14.4 °C -16.8 °C 34760.7 hPa North 56.6 km/h 56.6 km/h 74 % 0 mm 0.0 W/m2 CLR
20:45 -14.4 °C -16.8 °C 34760.7 hPa NW 41.7 km/h 41.7 km/h 74 % 0 mm 0.0 W/m2 CLR
20:48 -14.4 °C -16.8 °C 34760.7 hPa NNW 32.8 km/h 32.8 km/h 74 % 0 mm 0.0 W/m2 CLR
20:51 -14.7 °C -17.1 °C 34760.7 hPa NNW 32.8 km/h 32.8 km/h 74 % 0 mm 0.0 W/m2 CLR
20:55 -14.7 °C -17.1 °C 34760.7 hPa NNW 38.8 km/h 38.8 km/h 74 % 0 mm 0.0 W/m2 CLR
20:57 -14.7 °C -17.1 °C 34760.7 hPa NW 50.7 km/h 50.7 km/h 74 % 0 mm 0.0 W/m2 CLR
21:02 -14.7 °C -17.1 °C 34774.2 hPa NW 32.8 km/h 32.8 km/h 74 % 0 mm 0.0 W/m2 CLR
21:03 -14.7 °C -17.1 °C 34774.2 hPa NW 38.8 km/h 38.8 km/h 74 % 0 mm 0.0 W/m2 CLR
21:08 -14.7 °C -17.1 °C 34774.2 hPa North 41.7 km/h 41.7 km/h 74 % 0 mm 0.0 W/m2 CLR
21:09 -14.7 °C -17.1 °C 34774.2 hPa NNW 41.7 km/h 41.7 km/h 74 % 0 mm 0.0 W/m2 CLR
21:13 -14.7 °C -17.1 °C 34774.2 hPa WNW 38.8 km/h 38.8 km/h 74 % 0 mm 0.0 W/m2 CLR
21:15 -14.7 °C -17.1 °C 34774.2 hPa NW 44.1 km/h 44.1 km/h 74 % 0 mm 0.0 W/m2 CLR
21:20 -14.7 °C -17.1 °C 34774.2 hPa NW 41.7 km/h 41.7 km/h 74 % 0 mm 0.0 W/m2 CLR
21:25 -15 °C -17.4 °C 34784.4 hPa NW 50.7 km/h 50.7 km/h 74 % 0 mm 0.0 W/m2 CLR
21:26 -15 °C -17.4 °C 34774.2 hPa NNW 44.1 km/h 44.1 km/h 74 % 0 mm 0.0 W/m2 CLR
21:31 -14.7 °C -17.1 °C 34774.2 hPa NW 35.7 km/h 35.7 km/h 74 % 0 mm 0.0 W/m2 CLR
21:36 -14.7 °C -17 °C 34774.2 hPa NW 35.7 km/h 35.7 km/h 75 % 0 mm 0.0 W/m2 CLR
21:37 -15 °C -17.3 °C 34774.2 hPa NW 35.7 km/h 35.7 km/h 75 % 0 mm 0.0 W/m2 CLR
21:39 -14.7 °C -17 °C 34774.2 hPa NW 38.8 km/h 38.8 km/h 75 % 0 mm 0.0 W/m2 CLR
21:44 -15 °C -17.3 °C 34774.2 hPa NNW 50.7 km/h 50.7 km/h 75 % 0 mm 0.0 W/m2 CLR
21:45 -15 °C -17.3 °C 34774.2 hPa NNW 44.7 km/h 44.7 km/h 75 % 0 mm 0.0 W/m2 CLR
21:48 -15 °C -17.3 °C 34774.2 hPa NW 41.7 km/h 41.7 km/h 75 % 0 mm 0.0 W/m2 CLR
21:53 -15 °C -17.3 °C 34784.4 hPa NW 36.2 km/h 36.2 km/h 75 % 0 mm 0.0 W/m2 CLR
21:58 -15 °C -17.3 °C 34797.9 hPa NW 31.1 km/h 31.1 km/h 75 % 0 mm 0.0 W/m2 CLR
21:59 -15 °C -17.3 °C 34797.9 hPa NW 44.7 km/h 44.7 km/h 75 % 0 mm 0.0 W/m2 CLR
22:02 -15 °C -17.3 °C 34797.9 hPa NW 35.7 km/h 35.7 km/h 75 % 0 mm 0.0 W/m2 CLR
22:05 -15 °C -17.3 °C 34797.9 hPa NW 44.7 km/h 44.7 km/h 75 % 0 mm 0.0 W/m2 CLR
22:09 -15 °C -17.3 °C 34797.9 hPa NW 44.7 km/h 44.7 km/h 75 % 0 mm 0.0 W/m2 CLR
22:11 -15 °C -17.3 °C 34797.9 hPa NW 44.7 km/h 44.7 km/h 75 % 0 mm 0.0 W/m2 CLR
22:16 -15 °C -17.3 °C 34797.9 hPa NNW 44.7 km/h 44.7 km/h 75 % 0 mm 0.0 W/m2 CLR
22:17 -15 °C -17.3 °C 34797.9 hPa NNW 44.7 km/h 44.7 km/h 75 % 0 mm 0.0 W/m2 CLR
22:19 -15 °C -17.3 °C 34797.9 hPa NW 47.6 km/h 47.6 km/h 75 % 0 mm 0.0 W/m2 CLR
22:22 -15 °C -17.3 °C 34797.9 hPa NW 41.7 km/h 41.7 km/h 75 % 0 mm 0.0 W/m2 CLR
22:27 -15 °C -17.3 °C 34797.9 hPa NNW 36.2 km/h 36.2 km/h 75 % 0 mm 0.0 W/m2 CLR
22:28 -15 °C -17.3 °C 34797.9 hPa NW 35.7 km/h 35.7 km/h 75 % 0 mm 0.0 W/m2 CLR
22:32 -15 °C -17.2 °C 34797.9 hPa NW 29.8 km/h 29.8 km/h 76 % 0 mm 0.0 W/m2 CLR
22:33 -15 °C -17.2 °C 34808.1 hPa WNW 44.7 km/h 44.7 km/h 76 % 0 mm 0.0 W/m2 CLR
22:38 -15 °C -17.3 °C 34797.9 hPa NW 38.8 km/h 38.8 km/h 75 % 0 mm 0.0 W/m2 CLR
22:39 -15 °C -17.3 °C 34797.9 hPa NW 49.2 km/h 49.2 km/h 75 % 0 mm 0.0 W/m2 CLR
22:44 -15 °C -17.2 °C 34808.1 hPa NW 50.7 km/h 50.7 km/h 76 % 0 mm 0.0 W/m2 CLR
22:45 -15 °C -17.2 °C 34808.1 hPa NNW 62.6 km/h 62.6 km/h 76 % 0 mm 0.0 W/m2 CLR
22:50 -15 °C -17.2 °C 34797.9 hPa NW 53.6 km/h 53.6 km/h 76 % 0 mm 0.0 W/m2 CLR
22:51 -15 °C -17.2 °C 34797.9 hPa NW 50.7 km/h 50.7 km/h 76 % 0 mm 0.0 W/m2 CLR
22:56 -15 °C -17.2 °C 34808.1 hPa North 41.7 km/h 41.7 km/h 76 % 0 mm 0.0 W/m2 CLR
22:57 -15 °C -17.2 °C 34808.1 hPa NNW 35.7 km/h 35.7 km/h 76 % 0 mm 0.0 W/m2 CLR
23:02 -15 °C -17.2 °C 34808.1 hPa NW 29.8 km/h 29.8 km/h 76 % 0 mm 0.0 W/m2 CLR
23:07 -15 °C -17.2 °C 34808.1 hPa NNW 50.7 km/h 50.7 km/h 76 % 0 mm 0.0 W/m2 CLR
23:08 -15.3 °C -17.4 °C 34808.1 hPa NW 44.7 km/h 44.7 km/h 76 % 0 mm 0.0 W/m2 CLR
23:13 -15.3 °C -17.4 °C 34818.2 hPa NNW 29.8 km/h 29.8 km/h 76 % 0 mm 0.0 W/m2 CLR
23:15 -15.3 °C -17.4 °C 34818.2 hPa NNW 47.6 km/h 47.6 km/h 76 % 0 mm 0.0 W/m2 CLR
23:18 -15.3 °C -17.4 °C 34818.2 hPa NNW 35.7 km/h 35.7 km/h 76 % 0 mm 0.0 W/m2 CLR
23:23 -15.3 °C -17.4 °C 34818.2 hPa NW 50.7 km/h 50.7 km/h 76 % 0 mm 0.0 W/m2 CLR
23:25 -15.3 °C -17.4 °C 34818.2 hPa NNW 38.8 km/h 38.8 km/h 76 % 0 mm 0.0 W/m2 CLR
23:27 -15.3 °C -17.4 °C 34818.2 hPa NW 41.7 km/h 41.7 km/h 76 % 0 mm 0.0 W/m2 CLR
23:32 -15.3 °C -17.4 °C 34818.2 hPa North 15 km/h 15 km/h 76 % 0 mm 0.0 W/m2 CLR
23:35 -15.3 °C -17.4 °C 34831.8 hPa North 23.8 km/h 23.8 km/h 76 % 0 mm 0.0 W/m2 CLR
23:38 -15.3 °C -17.4 °C 34831.8 hPa NNW 20.9 km/h 20.9 km/h 76 % 0 mm 0.0 W/m2 CLR
23:43 -15.3 °C -17.4 °C 34831.8 hPa NW 35.7 km/h 35.7 km/h 76 % 0 mm 0.0 W/m2 CLR
23:48 -15.3 °C -17.6 °C 34831.8 hPa NNW 29.8 km/h 29.8 km/h 75 % 0 mm 0.0 W/m2 CLR
23:52 -15.3 °C -17.4 °C 34831.8 hPa NW 32.8 km/h 32.8 km/h 76 % 0 mm 0.0 W/m2 CLR
23:53 -15.3 °C -17.6 °C 34831.8 hPa NNW 26.9 km/h 26.9 km/h 75 % 0 mm 0.0 W/m2 CLR
23:54 -15.3 °C -17.6 °C 34831.8 hPa NNW 38.8 km/h 38.8 km/h 75 % 0 mm 0.0 W/m2 CLR
23:59 -15.3 °C -17.4 °C 34841.9 hPa NW 29.8 km/h 29.8 km/h 76 % 0 mm 0.0 W/m2 CLR
Lo Temps de Massalio
Compliments of Weather Underground - 1.75 mb